createdAt,value
2018-12-12T00:00:58.042Z,27.9
2018-12-12T00:01:50.317Z,28
2018-12-12T00:02:38.993Z,28.1
2018-12-12T00:03:29.062Z,28.1
2018-12-12T00:04:18.837Z,28.1
2018-12-12T00:05:10.001Z,28.1
2018-12-12T00:05:58.665Z,28.1
2018-12-12T00:06:48.751Z,28.1
2018-12-12T00:25:06.256Z,25.3
2018-12-12T00:25:55.538Z,25.2
2018-12-12T00:26:45.874Z,25.1
2018-12-12T00:27:36.208Z,25
2018-12-12T00:28:25.148Z,24.9
2018-12-12T00:29:14.891Z,24.9
2018-12-12T00:30:06.280Z,24.8
2018-12-12T00:30:56.633Z,24.8
2018-12-12T00:31:45.891Z,24.6
2018-12-12T00:32:35.928Z,24.7
2018-12-12T00:33:25.733Z,24.7
2018-12-12T00:34:16.360Z,24.7
2018-12-12T00:35:06.419Z,24.6
2018-12-12T00:35:56.513Z,24.6
2018-12-12T00:36:46.483Z,24.5
2018-12-12T00:37:36.631Z,24.4
2018-12-12T00:38:25.790Z,24.3
2018-12-12T00:39:17.255Z,24.3
2018-12-12T00:40:06.830Z,24.2
2018-12-12T00:40:57.385Z,24.4
2018-12-12T00:41:46.880Z,24.9
2018-12-12T00:42:36.692Z,25.4
2018-12-12T00:43:27.280Z,25.8
2018-12-12T00:44:15.915Z,25.9
2018-12-12T00:45:07.911Z,25.8
2018-12-12T00:45:57.404Z,25.8
2018-12-12T00:46:45.662Z,25.7
2018-12-12T00:47:36.740Z,25.7
2018-12-12T00:48:26.460Z,25.9
2018-12-12T00:49:17.387Z,26.1
2018-12-12T00:50:06.608Z,26.4
2018-12-12T00:50:56.930Z,26.7
2018-12-12T00:51:47.531Z,26.8
2018-12-12T00:52:35.991Z,27
2018-12-12T00:53:27.411Z,27.2
2018-12-12T00:54:17.245Z,27.3
2018-12-12T00:55:07.754Z,27.4
2018-12-12T00:55:57.331Z,27.6
2018-12-12T00:56:47.402Z,27.7
2018-12-12T00:57:38.244Z,27.8
2018-12-12T00:59:18.068Z,27.9
2018-12-12T01:00:08.203Z,28
2018-12-12T01:00:57.605Z,28
2018-12-12T01:01:48.758Z,27.9
2018-12-12T01:02:38.009Z,27.9
2018-12-12T01:03:27.576Z,27.9
2018-12-12T01:04:18.118Z,27.9
2018-12-12T01:05:58.764Z,27.8
2018-12-12T01:06:48.285Z,27.7
2018-12-12T01:07:38.838Z,27.6
2018-12-12T01:08:27.871Z,27.4
2018-12-12T01:09:18.755Z,26.9
2018-12-12T01:10:09.253Z,26.6
2018-12-12T01:10:58.027Z,26.4
2018-12-12T01:11:48.353Z,26.3
2018-12-12T01:12:38.202Z,26.1
2018-12-12T01:13:28.555Z,26
2018-12-12T01:14:18.842Z,25.9
2018-12-12T01:15:08.910Z,25.8
2018-12-12T01:15:59.493Z,25.8
2018-12-12T01:16:49.384Z,25.7
2018-12-12T01:17:39.900Z,25.6
2018-12-12T01:18:28.567Z,25.6
2018-12-12T01:19:19.155Z,25.3
2018-12-12T01:20:08.843Z,25.2
2018-12-12T01:20:59.807Z,25.1
2018-12-12T01:21:50.668Z,25.1
2018-12-12T01:22:40.003Z,24.9
2018-12-12T01:23:30.031Z,24.9
2018-12-12T01:24:19.857Z,24.8
2018-12-12T01:25:09.897Z,24.8
2018-12-12T01:26:00.220Z,24.7
2018-12-12T01:26:49.684Z,24.6
2018-12-12T01:27:39.797Z,24.5
2018-12-12T01:28:29.259Z,24.5
2018-12-12T01:29:19.682Z,24.4
2018-12-12T01:30:08.420Z,24.4
2018-12-12T01:30:59.870Z,24.4
2018-12-12T01:31:49.569Z,24.4
2018-12-12T01:32:38.867Z,24.3
2018-12-12T01:33:29.960Z,24.3
2018-12-12T01:34:20.076Z,24.2
2018-12-12T01:35:10.074Z,24.1
2018-12-12T01:36:00.207Z,24.1
2018-12-12T01:36:50.217Z,24.3
2018-12-12T01:37:39.424Z,24.8
2018-12-12T01:38:29.883Z,25.3
2018-12-12T01:39:19.809Z,25.4
2018-12-12T01:40:10.160Z,25.7
2018-12-12T01:40:59.196Z,25.5
2018-12-12T01:41:50.579Z,25.5
2018-12-12T01:42:40.694Z,25.4
2018-12-12T01:43:30.169Z,25.4
2018-12-12T01:44:18.871Z,25.6
2018-12-12T01:45:10.022Z,25.9
2018-12-12T01:45:59.816Z,26.2
2018-12-12T01:46:49.098Z,26.4
2018-12-12T01:47:40.431Z,26.6
2018-12-12T01:48:29.781Z,26.8
2018-12-12T01:49:20.986Z,26.9
2018-12-12T01:50:09.811Z,27.1
2018-12-12T01:51:00.139Z,27.2
2018-12-12T01:51:50.688Z,27.4
2018-12-12T01:52:40.403Z,27.4
2018-12-12T01:53:28.869Z,27.6
2018-12-12T01:54:19.904Z,27.5
2018-12-12T01:55:10.233Z,27.4
2018-12-12T01:56:00.888Z,27.2
2018-12-12T01:56:50.826Z,27.4
2018-12-12T01:57:41.205Z,27.9
2018-12-12T01:58:31.293Z,27.4
2018-12-12T01:59:21.870Z,27.2
2018-12-12T02:00:10.525Z,27
2018-12-12T02:01:00.328Z,26.9
2018-12-12T02:01:51.170Z,26.8
2018-12-12T02:02:40.663Z,26.9
2018-12-12T02:03:30.730Z,27.1
2018-12-12T02:04:21.623Z,27.3
2018-12-12T02:05:12.846Z,27.4
2018-12-12T02:06:02.227Z,27.5
2018-12-12T02:06:52.895Z,27.6
2018-12-12T02:07:42.025Z,27.8
2018-12-12T02:09:22.735Z,27.9
2018-12-12T02:10:12.495Z,27.9
2018-12-12T02:11:02.330Z,27.9
2018-12-12T02:11:52.626Z,27.9
2018-12-12T02:12:42.245Z,27.9
2018-12-12T02:14:21.958Z,27.8
2018-12-12T02:15:12.568Z,27.7
2018-12-12T02:16:02.378Z,27.6
2018-12-12T02:16:52.813Z,27.5
2018-12-12T02:17:41.967Z,27.4
2018-12-12T02:18:33.062Z,27
2018-12-12T02:19:23.160Z,26.6
2018-12-12T02:20:11.552Z,26.3
2018-12-12T02:21:02.622Z,26.2
2018-12-12T02:21:53.531Z,26.1
2018-12-12T02:22:43.417Z,25.9
2018-12-12T02:23:33.425Z,25.9
2018-12-12T02:24:22.179Z,25.8
2018-12-12T02:25:13.281Z,25.7
2018-12-12T02:26:04.132Z,25.6
2018-12-12T02:26:53.034Z,25.6
2018-12-12T02:27:42.866Z,25.5
2018-12-12T02:28:33.414Z,25.4
2018-12-12T02:29:23.852Z,25.2
2018-12-12T02:30:14.033Z,25.1
2018-12-12T02:31:04.234Z,25
2018-12-12T02:31:54.936Z,24.9
2018-12-12T02:32:45.669Z,24.8
2018-12-12T02:33:34.906Z,24.8
2018-12-12T02:34:22.916Z,24.7
2018-12-12T02:35:13.786Z,24.6
2018-12-12T02:36:04.398Z,24.6
2018-12-12T02:36:54.641Z,24.5
2018-12-12T02:37:44.748Z,24.4
2018-12-12T02:38:35.317Z,24.3
2018-12-12T02:39:24.573Z,24.4
2018-12-12T02:40:13.334Z,25
2018-12-12T02:41:03.966Z,25.4
2018-12-12T02:41:54.309Z,25.6
2018-12-12T02:42:44.085Z,25.6
2018-12-12T02:43:34.636Z,25.4
2018-12-12T02:44:24.515Z,25.4
2018-12-12T02:45:13.498Z,25.4
2018-12-12T02:46:03.846Z,25.5
2018-12-12T02:46:54.432Z,25.8
2018-12-12T02:47:43.698Z,26.1
2018-12-12T02:48:33.797Z,26.3
2018-12-12T02:49:23.772Z,26.5
2018-12-12T02:50:14.857Z,26.7
2018-12-12T02:51:04.985Z,26.8
2018-12-12T02:51:55.005Z,27
2018-12-12T02:52:44.491Z,27.1
2018-12-12T02:53:34.807Z,27.3
2018-12-12T02:54:25.128Z,27.4
2018-12-12T02:55:15.157Z,27.4
2018-12-12T02:56:04.884Z,27.6
2018-12-12T02:56:54.763Z,27.6
2018-12-12T02:57:45.778Z,27.7
2018-12-12T02:59:25.432Z,27.9
2018-12-12T03:00:15.202Z,27.9
2018-12-12T03:03:37.093Z,27.8
2018-12-12T03:04:25.704Z,27.7
2018-12-12T03:05:15.546Z,27.6
2018-12-12T03:06:06.361Z,27.6
2018-12-12T03:06:56.459Z,27.4
2018-12-12T03:07:46.509Z,27.4
2018-12-12T03:08:36.194Z,26.9
2018-12-12T03:09:26.829Z,26.6
2018-12-12T03:10:16.334Z,26.3
2018-12-12T03:11:07.542Z,26.1
2018-12-12T03:11:56.837Z,26
2018-12-12T03:12:47.708Z,25.9
2018-12-12T03:13:36.706Z,25.9
2018-12-12T03:14:28.295Z,25.8
2018-12-12T03:15:17.376Z,25.7
2018-12-12T03:16:07.329Z,25.6
2018-12-12T03:16:57.361Z,25.6
2018-12-12T03:17:47.941Z,25.5
2018-12-12T03:18:37.527Z,25.3
2018-12-12T03:19:28.136Z,25.1
2018-12-12T03:20:18.301Z,25
2018-12-12T03:21:07.959Z,24.9
2018-12-12T03:21:58.350Z,24.8
2018-12-12T03:22:47.540Z,24.8
2018-12-12T03:23:38.420Z,24.7
2018-12-12T03:24:28.163Z,24.6
2018-12-12T03:25:18.490Z,24.6
2018-12-12T03:26:08.005Z,24.4
2018-12-12T03:26:57.582Z,24.4
2018-12-12T03:27:47.279Z,24.4
2018-12-12T03:28:37.910Z,24.9
2018-12-12T03:29:27.963Z,25.3
2018-12-12T03:30:18.058Z,25.4
2018-12-12T03:31:09.417Z,25.5
2018-12-12T03:31:59.192Z,25.4
2018-12-12T03:32:48.628Z,25.4
2018-12-12T03:33:38.558Z,25.4
2018-12-12T03:34:29.198Z,25.4
2018-12-12T03:35:18.641Z,25.7
2018-12-12T03:36:08.165Z,26
2018-12-12T03:36:58.288Z,26.3
2018-12-12T03:37:49.815Z,26.4
2018-12-12T03:38:39.005Z,26.6
2018-12-12T03:39:29.657Z,26.8
2018-12-12T03:40:17.894Z,26.9
2018-12-12T03:41:09.064Z,27.1
2018-12-12T03:41:59.147Z,27.2
2018-12-12T03:42:49.146Z,27.3
2018-12-12T03:43:39.597Z,27.4
2018-12-12T03:44:29.610Z,27.5
2018-12-12T03:45:18.794Z,27.6
2018-12-12T03:46:09.151Z,27.7
2018-12-12T03:46:59.149Z,27.8
2018-12-12T03:48:40.179Z,27.9
2018-12-12T03:50:20.327Z,27.8
2018-12-12T03:51:10.274Z,27.8
2018-12-12T03:51:59.529Z,27.7
2018-12-12T03:52:49.859Z,27.6
2018-12-12T03:53:39.631Z,27.6
2018-12-12T03:54:30.518Z,27.5
2018-12-12T03:55:20.328Z,27.4
2018-12-12T03:56:09.505Z,27.3
2018-12-12T03:57:00.206Z,27.1
2018-12-12T03:57:50.828Z,26.6
2018-12-12T03:58:40.643Z,26.3
2018-12-12T03:59:30.646Z,26.1
2018-12-12T04:00:21.140Z,26
2018-12-12T04:01:10.461Z,25.9
2018-12-12T04:02:00.551Z,25.9
2018-12-12T04:02:50.580Z,25.8
2018-12-12T04:03:40.339Z,25.7
2018-12-12T04:04:30.309Z,25.6
2018-12-12T04:05:20.531Z,25.6
2018-12-12T04:06:10.216Z,25.5
2018-12-12T04:07:01.185Z,25.4
2018-12-12T04:07:50.121Z,25.2
2018-12-12T04:08:39.917Z,25
2018-12-12T04:09:31.977Z,24.9
2018-12-12T04:10:21.283Z,24.8
2018-12-12T04:11:11.481Z,24.8
2018-12-12T04:12:01.480Z,24.7
2018-12-12T04:12:51.060Z,24.6
2018-12-12T04:13:42.145Z,24.6
2018-12-12T04:14:32.125Z,24.5
2018-12-12T04:15:21.728Z,24.5
2018-12-12T04:16:11.477Z,24.9
2018-12-12T04:17:01.510Z,25.3
2018-12-12T04:17:51.129Z,25.5
2018-12-12T04:18:41.637Z,25.5
2018-12-12T04:19:32.549Z,25.4
2018-12-12T04:20:20.631Z,25.4
2018-12-12T04:21:12.182Z,25.4
2018-12-12T04:22:01.101Z,25.4
2018-12-12T04:22:51.419Z,25.7
2018-12-12T04:23:41.802Z,26
2018-12-12T04:24:32.113Z,26.3
2018-12-12T04:25:24.269Z,26.4
2018-12-12T04:26:12.211Z,26.6
2018-12-12T04:27:02.768Z,26.7
2018-12-12T04:27:52.632Z,26.5
2018-12-12T04:28:41.516Z,26.4
2018-12-12T04:29:32.138Z,26.3
2018-12-12T04:30:22.987Z,26.4
2018-12-12T04:31:13.348Z,26.6
2018-12-12T04:32:03.266Z,26.8
2018-12-12T04:32:52.388Z,26.5
2018-12-12T04:33:42.699Z,26.4
2018-12-12T04:34:34.175Z,26.3
2018-12-12T04:35:23.048Z,26.1
2018-12-12T04:36:12.383Z,26.2
2018-12-12T04:37:03.404Z,26.4
2018-12-12T04:54:21.137Z,27.6
2018-12-12T04:55:11.010Z,27.5
2018-12-12T04:56:00.759Z,27.4
2018-12-12T04:56:51.346Z,26.9
2018-12-12T04:57:41.141Z,26.5
2018-12-12T04:58:30.604Z,26.3
2018-12-12T04:59:21.251Z,26.1
2018-12-12T05:00:11.121Z,26.1
2018-12-12T05:01:00.688Z,25.9
2018-12-12T05:01:51.241Z,25.9
2018-12-12T05:02:40.903Z,25.8
2018-12-12T05:03:30.947Z,25.8
2018-12-12T05:04:21.171Z,25.8
2018-12-12T05:05:11.370Z,25.6
2018-12-12T05:06:02.229Z,25.6
2018-12-12T05:06:51.750Z,25.4
2018-12-12T05:07:41.547Z,25.2
2018-12-12T05:08:32.966Z,25.1
2018-12-12T05:09:23.201Z,24.9
2018-12-12T05:10:13.211Z,24.9
2018-12-12T05:11:02.406Z,24.8
2018-12-12T05:11:52.408Z,24.7
2018-12-12T05:12:42.021Z,24.6
2018-12-12T05:13:31.158Z,24.6
2018-12-12T05:14:21.725Z,25
2018-12-12T05:15:12.119Z,25.3
2018-12-12T05:16:01.613Z,25.5
2018-12-12T05:16:53.348Z,25.6
2018-12-12T05:17:42.253Z,25.4
2018-12-12T05:18:32.586Z,25.3
2018-12-12T05:19:22.280Z,25.3
2018-12-12T05:20:11.517Z,25.3
2018-12-12T05:21:02.433Z,25.6
2018-12-12T05:21:52.720Z,25.9
2018-12-12T05:22:43.038Z,26.1
2018-12-12T05:23:32.119Z,26.3
2018-12-12T05:24:22.642Z,26.5
2018-12-12T05:25:13.086Z,26.7
2018-12-12T05:26:03.354Z,26.8
2018-12-12T05:26:53.102Z,27
2018-12-12T05:27:43.701Z,27.1
2018-12-12T05:28:32.400Z,27.2
2018-12-12T05:29:23.269Z,27.3
2018-12-12T05:30:13.397Z,27.4
2018-12-12T05:31:03.167Z,27.4
2018-12-12T05:31:54.439Z,27.6
2018-12-12T05:32:44.307Z,27.6
2018-12-12T05:33:31.957Z,27.7
2018-12-12T05:34:22.017Z,27.8
2018-12-12T05:36:52.214Z,27.8
2018-12-12T05:37:55.299Z,27.7
2018-12-12T05:38:32.798Z,27.6
2018-12-12T05:39:24.482Z,27.6
2018-12-12T05:40:13.446Z,27.6
2018-12-12T05:41:02.971Z,27.5
2018-12-12T05:41:53.348Z,27.4
2018-12-12T05:42:43.864Z,27.4
2018-12-12T05:43:34.553Z,27.3
2018-12-12T05:44:25.793Z,26.9
2018-12-12T05:45:13.794Z,26.5
2018-12-12T05:46:03.448Z,26.3
2018-12-12T05:46:53.956Z,26.1
2018-12-12T05:47:43.973Z,25.9
2018-12-12T05:48:34.374Z,25.9
2018-12-12T05:49:24.085Z,25.8
2018-12-12T05:50:14.698Z,25.8
2018-12-12T05:51:04.203Z,25.7
2018-12-12T05:51:54.881Z,25.7
2018-12-12T05:52:44.892Z,25.6
2018-12-12T05:53:33.873Z,25.6
2018-12-12T05:54:23.901Z,25.3
2018-12-12T05:55:14.528Z,25.3
2018-12-12T05:56:17.990Z,25.4
2018-12-12T05:57:00.540Z,25.3
2018-12-12T05:57:45.021Z,25.4
2018-12-12T05:58:35.330Z,25.4
2018-12-12T05:59:24.085Z,25.4
2018-12-12T06:00:15.060Z,25.6
2018-12-12T06:01:04.542Z,25.8
2018-12-12T06:01:53.815Z,26.1
2018-12-12T06:02:44.348Z,26.3
2018-12-12T06:03:36.730Z,26.5
2018-12-12T06:04:25.100Z,26.7
2018-12-12T06:05:15.064Z,26.8
2018-12-12T06:06:04.905Z,26.9
2018-12-12T06:06:55.320Z,27.1
2018-12-12T06:07:47.407Z,27.2
2018-12-12T06:08:35.424Z,27.3
2018-12-12T06:09:24.920Z,27.4
2018-12-12T06:10:15.585Z,27.4
2018-12-12T06:11:04.825Z,27.6
2018-12-12T06:11:56.555Z,27.6
2018-12-12T06:12:47.110Z,27.7
2018-12-12T06:13:36.109Z,27.8
2018-12-12T06:14:26.609Z,27.9
2018-12-12T06:15:16.939Z,27.9
2018-12-12T06:16:06.458Z,27.9
2018-12-12T06:17:47.512Z,27.8
2018-12-12T06:18:37.286Z,27.7
2018-12-12T06:19:25.443Z,27.7
2018-12-12T06:20:16.850Z,27.6
2018-12-12T06:21:06.631Z,27.6
2018-12-12T06:21:56.608Z,27.5
2018-12-12T06:22:47.635Z,27.4
2018-12-12T06:23:36.476Z,27.2
2018-12-12T06:24:26.830Z,26.8
2018-12-12T06:25:16.155Z,26.4
2018-12-12T06:26:06.955Z,26.3
2018-12-12T06:26:56.700Z,26.1
2018-12-12T06:27:47.578Z,26
2018-12-12T06:28:38.543Z,25.9
2018-12-12T06:29:27.665Z,25.9
2018-12-12T06:30:17.537Z,25.8
2018-12-12T06:31:08.098Z,25.8
2018-12-12T06:31:57.732Z,25.8
2018-12-12T06:32:47.180Z,25.7
2018-12-12T06:33:36.452Z,25.4
2018-12-12T06:34:27.304Z,25.4
2018-12-12T06:35:16.782Z,25.5
2018-12-12T06:36:07.347Z,25.8
2018-12-12T06:36:56.414Z,26
2018-12-12T06:37:47.628Z,25.7
2018-12-12T06:38:37.307Z,25.6
2018-12-12T06:39:27.074Z,25.6
2018-12-12T06:40:17.992Z,25.6
2018-12-12T06:41:08.287Z,25.8
2018-12-12T06:41:57.819Z,26
2018-12-12T06:42:47.842Z,25.9
2018-12-12T06:43:37.429Z,25.8
2018-12-12T06:44:26.777Z,25.7
2018-12-12T06:45:17.527Z,25.6
2018-12-12T06:46:08.189Z,25.5
2018-12-12T06:46:57.099Z,25.4
2018-12-12T06:47:47.722Z,25.8
2018-12-12T06:48:39.006Z,26.1
2018-12-12T06:49:28.581Z,26.2
2018-12-12T06:50:18.644Z,26.4
2018-12-12T06:51:08.339Z,26.3
2018-12-12T06:51:59.068Z,26
2018-12-12T06:52:48.233Z,25.8
2018-12-12T06:53:39.056Z,25.6
2018-12-12T06:54:29.068Z,25.6
2018-12-12T06:55:18.868Z,25.8
2018-12-12T06:56:08.676Z,26.1
2018-12-12T06:56:58.258Z,26.3
2018-12-12T06:57:48.365Z,26.5
2018-12-12T06:58:38.370Z,26.7
2018-12-12T06:59:29.818Z,26.9
2018-12-12T07:00:19.667Z,27
2018-12-12T07:01:09.597Z,27.1
2018-12-12T07:01:58.886Z,27.3
2018-12-12T07:02:48.912Z,27.3
2018-12-12T07:03:39.805Z,27.4
2018-12-12T07:04:29.877Z,27.6
2018-12-12T07:05:19.887Z,27.6
2018-12-12T07:06:09.963Z,27.8
2018-12-12T07:06:59.935Z,27.8
2018-12-12T07:07:49.785Z,27.8
2018-12-12T07:08:39.249Z,27.7
2018-12-12T07:09:30.644Z,27.6
2018-12-12T07:10:20.434Z,27.6
2018-12-12T07:11:10.082Z,27.6
2018-12-12T07:12:01.154Z,27.5
2018-12-12T07:12:50.121Z,27.4
2018-12-12T07:13:44.762Z,27.4
2018-12-12T07:14:30.302Z,27.3
2018-12-12T07:15:21.074Z,27.2
2018-12-12T07:16:10.352Z,26.7
2018-12-12T07:16:58.964Z,26.4
2018-12-12T07:17:50.224Z,26.1
2018-12-12T07:18:40.537Z,26
2018-12-12T07:19:31.567Z,25.9
2018-12-12T07:20:20.910Z,25.8
2018-12-12T07:21:11.991Z,25.8
2018-12-12T07:22:01.392Z,25.8
2018-12-12T07:22:53.484Z,25.7
2018-12-12T07:23:40.805Z,25.6
2018-12-12T07:24:30.863Z,25.5
2018-12-12T07:25:21.718Z,25.2
2018-12-12T07:26:11.189Z,25.4
2018-12-12T07:27:00.671Z,25.7
2018-12-12T07:27:51.709Z,26.1
2018-12-12T07:28:39.791Z,25.6
2018-12-12T07:29:32.126Z,25.6
2018-12-12T07:30:21.316Z,25.5
2018-12-12T07:31:10.864Z,25.5
2018-12-12T07:32:01.781Z,25.7
2018-12-12T07:32:51.523Z,26
2018-12-12T07:33:41.543Z,26.3
2018-12-12T07:34:31.114Z,26.5
2018-12-12T07:35:21.933Z,26.7
2018-12-12T07:51:11.323Z,28.9
2018-12-12T07:51:46.915Z,28.9
2018-12-12T07:52:38.185Z,28.8
2018-12-12T07:53:26.737Z,28.8
2018-12-12T07:54:17.349Z,28.6
2018-12-12T07:55:07.193Z,27.4
2018-12-12T07:55:56.982Z,26.5
2018-12-12T07:56:46.997Z,26.1
2018-12-12T07:57:38.237Z,25.8
2018-12-12T07:58:27.467Z,25.6
2018-12-12T07:59:16.946Z,25.5
2018-12-12T08:00:06.684Z,25.4
2018-12-12T08:00:57.154Z,25.4
2018-12-12T08:01:47.312Z,25.4
2018-12-12T08:02:36.911Z,25.3
2018-12-12T08:03:26.454Z,25.3
2018-12-12T08:04:17.029Z,25.3
2018-12-12T08:05:07.354Z,25
2018-12-12T08:05:56.579Z,24.8
2018-12-12T08:06:47.252Z,24.6
2018-12-12T08:07:36.994Z,24.4
2018-12-12T08:08:28.158Z,24.4
2018-12-12T08:09:17.154Z,24.3
2018-12-12T08:10:07.716Z,24.2
2018-12-12T08:10:56.736Z,24.3
2018-12-12T08:11:47.213Z,24.8
2018-12-12T08:12:38.037Z,25
2018-12-12T08:13:28.521Z,25
2018-12-12T08:14:18.488Z,24.9
2018-12-12T08:15:08.236Z,24.8
2018-12-12T08:15:57.741Z,24.8
2018-12-12T08:16:47.575Z,24.9
2018-12-12T08:17:38.808Z,25.1
2018-12-12T08:18:28.696Z,25.4
2018-12-12T08:19:17.758Z,25.7
2018-12-12T08:20:08.615Z,25.9
2018-12-12T08:20:58.065Z,26.1
2018-12-12T08:21:48.498Z,26.3
2018-12-12T08:22:38.503Z,26.4
2018-12-12T08:23:28.683Z,26.6
2018-12-12T08:24:17.763Z,26.8
2018-12-12T08:25:09.507Z,26.8
2018-12-12T08:25:58.775Z,26.9
2018-12-12T08:26:48.057Z,27.1
2018-12-12T08:27:40.453Z,27.1
2018-12-12T08:28:28.532Z,27.3
2018-12-12T08:29:19.030Z,27.3
2018-12-12T08:30:07.837Z,27.4
2018-12-12T08:30:58.892Z,27.5
2018-12-12T08:31:48.660Z,27.6
2018-12-12T08:32:38.317Z,27.6
2018-12-12T08:33:28.494Z,27.6
2018-12-12T08:34:19.715Z,27.6
2018-12-12T08:35:08.992Z,27.5
2018-12-12T08:35:59.720Z,27.5
2018-12-12T08:36:49.329Z,27.4
2018-12-12T08:37:40.157Z,27.4
2018-12-12T08:38:28.637Z,27.4
2018-12-12T08:39:18.759Z,27.3
2018-12-12T08:40:10.659Z,27.3
2018-12-12T08:41:00.116Z,27.2
2018-12-12T08:41:49.622Z,26.7
2018-12-12T08:42:39.194Z,26.3
2018-12-12T08:43:29.260Z,26.1
2018-12-12T08:44:19.939Z,25.9
2018-12-12T08:45:10.958Z,25.8
2018-12-12T08:45:59.426Z,25.8
2018-12-12T08:46:49.933Z,25.7
2018-12-12T08:47:39.754Z,25.7
2018-12-12T08:48:30.716Z,25.6
2018-12-12T08:49:20.237Z,25.4
2018-12-12T08:50:10.809Z,25.2
2018-12-12T08:50:59.907Z,25.4
2018-12-12T08:51:50.071Z,25.7
2018-12-12T08:52:40.643Z,26.3
2018-12-12T08:53:30.643Z,26.6
2018-12-12T08:54:20.988Z,25.9
2018-12-12T08:55:14.719Z,25.6
2018-12-12T08:56:00.112Z,25.4
2018-12-12T08:56:49.861Z,25.5
2018-12-12T08:57:39.726Z,25.7
2018-12-12T08:58:30.463Z,26
2018-12-12T08:59:20.364Z,26.3
2018-12-12T09:00:11.031Z,26.4
2018-12-12T09:16:32.017Z,27.2
2018-12-12T09:17:21.915Z,26.6
2018-12-12T09:18:11.765Z,26.3
2018-12-12T09:19:02.650Z,26.1
2018-12-12T09:19:51.932Z,25.9
2018-12-12T09:20:42.330Z,25.8
2018-12-12T09:21:36.338Z,25.8
2018-12-12T09:22:22.510Z,25.7
2018-12-12T09:23:12.680Z,25.7
2018-12-12T09:24:02.675Z,25.6
2018-12-12T09:24:52.439Z,25.4
2018-12-12T09:25:43.352Z,25.3
2018-12-12T09:26:33.822Z,25.6
2018-12-12T09:27:23.382Z,26.1
2018-12-12T09:28:13.021Z,26.6
2018-12-12T09:29:03.102Z,25.9
2018-12-12T09:29:52.922Z,25.6
2018-12-12T09:30:43.155Z,25.5
2018-12-12T09:31:33.734Z,25.5
2018-12-12T09:32:24.038Z,25.8
2018-12-12T09:33:14.070Z,26.1
2018-12-12T09:34:03.606Z,26.3
2018-12-12T09:34:53.111Z,26.5
2018-12-12T09:35:43.162Z,26.7
2018-12-12T09:36:34.032Z,26.8
2018-12-12T09:37:23.819Z,26.9
2018-12-12T09:38:14.171Z,27.1
2018-12-12T09:39:03.955Z,27.2
2018-12-12T09:39:53.549Z,27.3
2018-12-12T09:40:44.082Z,27.4
2018-12-12T09:41:34.739Z,27.5
2018-12-12T09:42:24.706Z,27.6
2018-12-12T09:43:15.019Z,27.6
2018-12-12T09:44:04.094Z,27.6
2018-12-12T09:44:54.842Z,27.6
2018-12-12T09:45:44.399Z,27.6
2018-12-12T09:46:35.773Z,27.5
2018-12-12T09:47:24.966Z,27.4
2018-12-12T09:48:21.786Z,27.4
2018-12-12T09:49:04.473Z,27.4
2018-12-12T09:49:54.901Z,27.3
2018-12-12T09:50:45.516Z,27.2
2018-12-12T09:51:35.086Z,27.1
2018-12-12T09:52:25.001Z,27.1
2018-12-12T09:53:14.761Z,27
2018-12-12T09:54:05.001Z,26.9
2018-12-12T09:54:54.958Z,26.9
2018-12-12T09:55:47.222Z,26.8
2018-12-12T09:56:35.371Z,26.8
2018-12-12T09:57:25.258Z,26.7
2018-12-12T09:58:14.513Z,26.6
2018-12-12T09:59:05.975Z,26.6
2018-12-12T09:59:55.856Z,26.5
2018-12-12T10:00:45.953Z,26.4
2018-12-12T10:01:35.511Z,26.4
2018-12-12T10:02:25.570Z,26.4
2018-12-12T10:03:17.035Z,26.3
2018-12-12T10:04:06.510Z,26.3
2018-12-12T10:04:55.217Z,26.2
2018-12-12T10:05:46.812Z,26.2
2018-12-12T10:06:35.610Z,26.1
2018-12-12T10:07:27.200Z,26.1
2018-12-12T10:08:16.768Z,26.1
2018-12-12T10:09:08.035Z,26
2018-12-12T10:09:57.115Z,25.9
2018-12-12T10:10:46.604Z,25.9
2018-12-12T10:11:37.197Z,25.9
2018-12-12T10:12:26.572Z,25.8
2018-12-12T10:13:17.082Z,25.8
2018-12-12T10:14:06.859Z,25.7
2018-12-12T10:14:56.929Z,25.6
2018-12-12T10:15:47.249Z,25.5
2018-12-12T10:16:37.392Z,25.4
2018-12-12T10:17:26.095Z,25.3
2018-12-12T10:18:16.875Z,25.3
2018-12-12T10:19:07.212Z,25.2
2018-12-12T10:19:57.269Z,25.1
2018-12-12T10:20:47.317Z,25
2018-12-12T10:21:37.942Z,24.9
2018-12-12T10:22:27.799Z,24.9
2018-12-12T10:23:17.829Z,24.8
2018-12-12T10:24:07.534Z,24.7
2018-12-12T10:24:58.036Z,24.6
2018-12-12T10:25:48.333Z,24.4
2018-12-12T10:26:37.447Z,24.4
2018-12-12T10:27:28.326Z,24.3
2018-12-12T10:28:18.159Z,24.2
2018-12-12T10:29:07.894Z,24.1
2018-12-12T10:29:57.746Z,24
2018-12-12T10:30:48.108Z,23.9
2018-12-12T10:31:38.476Z,23.8
2018-12-12T10:32:28.701Z,23.8
2018-12-12T10:33:18.491Z,23.7
2018-12-12T10:34:08.248Z,23.6
2018-12-12T10:34:58.881Z,23.6
2018-12-12T10:35:48.938Z,23.4
2018-12-12T10:36:38.248Z,23.4
2018-12-12T10:37:28.210Z,23.3
2018-12-12T10:38:18.248Z,23.3
2018-12-12T10:39:08.898Z,23.2
2018-12-12T10:39:59.427Z,23.1
2018-12-12T10:40:49.056Z,23
2018-12-12T10:41:39.355Z,23
2018-12-12T10:42:29.121Z,22.9
2018-12-12T10:43:19.008Z,22.9
2018-12-12T10:44:08.388Z,22.8
2018-12-12T10:44:59.275Z,22.8
2018-12-12T10:45:49.130Z,22.7
2018-12-12T10:46:38.670Z,22.7
2018-12-12T10:47:29.050Z,22.6
2018-12-12T10:48:19.041Z,22.6
2018-12-12T10:49:08.570Z,22.5
2018-12-12T10:49:59.695Z,22.4
2018-12-12T10:50:49.822Z,22.4
2018-12-12T10:51:39.743Z,22.4
2018-12-12T10:52:29.769Z,22.3
2018-12-12T10:53:20.982Z,22.3
2018-12-12T10:54:09.705Z,22.3
2018-12-12T10:54:59.972Z,22.2
2018-12-12T10:55:50.516Z,22.1
2018-12-12T10:56:38.795Z,22.1
2018-12-12T10:57:29.377Z,22.1
2018-12-12T10:58:20.949Z,22
2018-12-12T10:59:09.708Z,22
2018-12-12T10:59:59.752Z,21.9
2018-12-12T11:00:49.309Z,21.9
2018-12-12T11:01:40.717Z,21.9
2018-12-12T11:02:30.499Z,21.8
2018-12-12T11:03:19.413Z,21.8
2018-12-12T11:04:10.869Z,21.8
2018-12-12T11:05:00.674Z,21.8
2018-12-12T11:05:51.226Z,21.8
2018-12-12T11:06:40.601Z,21.7
2018-12-12T11:07:30.831Z,21.7
2018-12-12T11:08:21.394Z,21.6
2018-12-12T11:09:10.960Z,21.6
2018-12-12T11:10:01.144Z,21.6
2018-12-12T11:10:51.599Z,21.6
2018-12-12T11:11:41.436Z,21.6
2018-12-12T11:12:31.457Z,21.5
2018-12-12T11:13:20.464Z,21.5
2018-12-12T11:14:12.416Z,21.4
2018-12-12T11:15:00.796Z,21.4
2018-12-12T11:15:51.098Z,21.4
2018-12-12T11:16:41.453Z,21.4
2018-12-12T11:17:31.791Z,21.4
2018-12-12T11:18:21.058Z,21.3
2018-12-12T11:19:12.228Z,21.3
2018-12-12T11:20:01.428Z,21.3
2018-12-12T11:20:51.449Z,21.3
2018-12-12T11:21:42.033Z,21.3
2018-12-12T11:22:31.593Z,21.3
2018-12-12T11:23:21.912Z,21.2
2018-12-12T11:24:12.338Z,21.2
2018-12-12T11:25:02.398Z,21.2
2018-12-12T11:27:32.446Z,21.1
2018-12-12T11:28:21.698Z,21.1
2018-12-12T11:29:12.092Z,21.1
2018-12-12T11:30:01.922Z,21.1
2018-12-12T11:30:51.557Z,21
2018-12-12T11:31:41.958Z,20.9
2018-12-12T11:32:31.793Z,20.9
2018-12-12T11:33:22.890Z,20.9
2018-12-12T11:34:11.879Z,20.9
2018-12-12T11:35:02.205Z,20.9
2018-12-12T11:35:51.969Z,20.9
2018-12-12T11:36:43.803Z,20.9
2018-12-12T11:37:31.840Z,20.9
2018-12-12T11:38:22.175Z,20.9
2018-12-12T11:39:10.987Z,20.9
2018-12-12T11:40:02.858Z,20.8
2018-12-12T11:40:53.152Z,20.8
2018-12-12T11:41:42.972Z,20.8
2018-12-12T11:42:33.254Z,20.8
2018-12-12T11:43:23.319Z,20.8
2018-12-12T11:44:13.141Z,20.8
2018-12-12T11:45:02.884Z,20.8
2018-12-12T11:45:52.934Z,20.8
2018-12-12T11:46:43.533Z,20.7
2018-12-12T11:47:33.836Z,20.7
2018-12-12T11:48:23.348Z,20.6
2018-12-12T11:49:12.981Z,20.6
2018-12-12T11:50:04.061Z,20.6
2018-12-12T11:50:53.266Z,20.6
2018-12-12T11:51:43.616Z,20.6
2018-12-12T11:52:33.693Z,20.6
2018-12-12T11:53:23.189Z,20.6
2018-12-12T11:54:13.741Z,20.6
2018-12-12T11:55:03.804Z,20.6
2018-12-12T11:55:53.991Z,20.6
2018-12-12T11:56:43.018Z,20.5
2018-12-12T11:57:35.404Z,20.5
2018-12-12T11:58:22.825Z,20.5
2018-12-12T11:59:13.443Z,20.5
2018-12-12T12:00:03.431Z,20.5
2018-12-12T12:00:53.848Z,20.4
2018-12-12T12:01:43.870Z,20.4
2018-12-12T12:02:39.998Z,20.4
2018-12-12T12:03:23.707Z,20.4
2018-12-12T12:04:14.254Z,20.4
2018-12-12T12:05:04.030Z,20.4
2018-12-12T12:05:54.140Z,20.4
2018-12-12T12:06:45.323Z,20.4
2018-12-12T12:07:35.325Z,20.4
2018-12-12T12:08:24.750Z,20.4
2018-12-12T12:09:14.853Z,20.3
2018-12-12T12:10:05.177Z,20.3
2018-12-12T12:10:54.994Z,20.3
2018-12-12T12:11:45.739Z,20.3
2018-12-12T12:12:35.015Z,20.3
2018-12-12T12:13:25.127Z,20.3
2018-12-12T12:14:15.682Z,20.3
2018-12-12T12:15:05.752Z,20.3
2018-12-12T12:15:56.129Z,20.3
2018-12-12T12:16:46.387Z,20.3
2018-12-12T12:17:36.082Z,20.3
2018-12-12T12:18:25.687Z,20.3
2018-12-12T12:19:15.527Z,20.3
2018-12-12T12:20:05.874Z,20.3
2018-12-12T12:20:56.189Z,20.3
2018-12-12T12:21:45.896Z,20.2
2018-12-12T12:22:36.324Z,20.2
2018-12-12T12:23:25.761Z,20.2
2018-12-12T12:24:15.049Z,20.2
2018-12-12T12:25:06.459Z,20.2
2018-12-12T12:25:56.579Z,20.2